createdAt,value
2018-10-03T00:01:13.030Z,80.99
2018-10-03T00:03:41.209Z,81.29
2018-10-03T00:06:09.423Z,81.33
2018-10-03T00:08:37.635Z,81.57
2018-10-03T00:11:05.816Z,81.39
2018-10-03T00:13:34.051Z,81.78
2018-10-03T00:16:02.291Z,81.19
2018-10-03T00:18:30.555Z,82.44
2018-10-03T00:20:58.764Z,83.07
2018-10-03T00:23:26.956Z,83.67
2018-10-03T00:25:55.020Z,83.40
2018-10-03T00:28:23.309Z,84.27
2018-10-03T00:30:51.499Z,85.02
2018-10-03T00:33:19.723Z,84.33
2018-10-03T00:35:47.901Z,84.63
2018-10-03T00:38:16.700Z,84.57
2018-10-03T00:40:45.033Z,84.76
2018-10-03T00:43:13.204Z,85.60
2018-10-03T00:45:41.472Z,85.69
2018-10-03T00:48:09.815Z,85.34
2018-10-03T00:50:38.263Z,84.84
2018-10-03T00:53:06.875Z,85.21
2018-10-03T00:55:35.128Z,85.25
2018-10-03T00:58:04.000Z,85.12
2018-10-03T01:00:32.256Z,84.46
2018-10-03T01:03:00.406Z,84.86
2018-10-03T01:05:28.581Z,85.12
2018-10-03T01:07:57.025Z,84.65
2018-10-03T01:10:25.374Z,84.40
2018-10-03T01:12:53.524Z,84.74
2018-10-03T01:15:21.740Z,85.59
2018-10-03T01:17:50.325Z,85.65
2018-10-03T01:20:18.615Z,85.02
2018-10-03T01:22:46.871Z,85.47
2018-10-03T01:25:15.068Z,85.48
2018-10-03T01:27:43.248Z,85.25
2018-10-03T01:30:11.552Z,84.68
2018-10-03T01:32:39.961Z,84.54
2018-10-03T01:35:08.214Z,84.60
2018-10-03T01:37:36.483Z,84.41
2018-10-03T01:40:04.669Z,84.01
2018-10-03T01:42:32.888Z,83.60
2018-10-03T01:45:01.086Z,83.88
2018-10-03T01:47:29.315Z,84.19
2018-10-03T01:49:57.546Z,84.65
2018-10-03T01:52:25.694Z,84.12
2018-10-03T01:54:53.880Z,84.50
2018-10-03T01:57:22.060Z,84.67
2018-10-03T01:59:50.282Z,84.36
2018-10-03T02:02:18.554Z,83.66
2018-10-03T02:04:46.712Z,83.88
2018-10-03T02:07:14.931Z,83.41
2018-10-03T02:09:43.086Z,83.78
2018-10-03T02:12:11.320Z,83.22
2018-10-03T02:14:39.481Z,83.49
2018-10-03T02:17:07.605Z,83.31
2018-10-03T02:19:35.780Z,83.60
2018-10-03T02:22:03.953Z,83.67
2018-10-03T02:24:32.196Z,84.13
2018-10-03T02:27:00.563Z,84.80
2018-10-03T02:29:28.828Z,84.73
2018-10-03T02:31:56.972Z,84.71
2018-10-03T02:34:25.240Z,84.23
2018-10-03T02:36:53.428Z,84.34
2018-10-03T02:39:21.683Z,85.22
2018-10-03T02:41:49.863Z,84.96
2018-10-03T02:44:18.213Z,84.65
2018-10-03T02:46:46.379Z,84.66
2018-10-03T02:49:17.468Z,85.15
2018-10-03T02:51:45.647Z,85.15
2018-10-03T02:54:13.793Z,85.87
2018-10-03T02:56:41.916Z,86.00
2018-10-03T02:59:10.146Z,85.63
2018-10-03T03:01:39.329Z,85.82
2018-10-03T03:04:07.427Z,85.28
2018-10-03T03:06:35.608Z,85.54
2018-10-03T03:09:04.453Z,86.27
2018-10-03T03:11:32.596Z,85.68
2018-10-03T03:14:00.838Z,86.68
2018-10-03T03:16:28.972Z,87.07
2018-10-03T03:18:57.195Z,87.28
2018-10-03T03:21:25.423Z,87.12
2018-10-03T03:23:53.628Z,86.60
2018-10-03T03:26:21.909Z,87.02
2018-10-03T03:28:50.239Z,86.94
2018-10-03T03:31:19.495Z,86.83
2018-10-03T03:33:47.726Z,86.33
2018-10-03T03:36:15.939Z,87.08
2018-10-03T03:38:44.128Z,87.53
2018-10-03T03:41:12.614Z,86.70
2018-10-03T03:43:41.360Z,86.63
2018-10-03T03:46:09.732Z,87.21
2018-10-03T03:48:37.973Z,87.31
2018-10-03T03:51:06.715Z,87.30
2018-10-03T03:53:34.878Z,88.03
2018-10-03T03:56:03.033Z,88.34
2018-10-03T03:58:31.273Z,88.41
2018-10-03T04:00:59.633Z,88.95
2018-10-03T04:03:27.908Z,88.38
2018-10-03T04:05:56.181Z,88.13
2018-10-03T04:08:24.459Z,88.31
2018-10-03T04:10:52.662Z,87.86
2018-10-03T04:13:20.813Z,88.05
2018-10-03T04:15:49.243Z,87.57
2018-10-03T04:18:17.444Z,88.28
2018-10-03T04:20:45.613Z,87.54
2018-10-03T04:23:13.753Z,88.57
2018-10-03T04:25:41.944Z,88.38
2018-10-03T04:28:10.071Z,88.81
2018-10-03T04:30:38.272Z,89.43
2018-10-03T04:33:06.544Z,89.10
2018-10-03T04:35:34.916Z,89.19
2018-10-03T04:38:03.072Z,89.63
2018-10-03T04:40:31.248Z,88.82
2018-10-03T04:42:59.380Z,89.42
2018-10-03T04:45:27.636Z,90.45
2018-10-03T04:47:55.860Z,90.21
2018-10-03T04:50:24.088Z,89.69
2018-10-03T04:52:52.391Z,89.55
2018-10-03T04:55:20.622Z,89.63
2018-10-03T04:57:49.024Z,89.38
2018-10-03T05:00:17.296Z,89.69
2018-10-03T05:02:45.444Z,90.41
2018-10-03T05:05:13.579Z,90.67
2018-10-03T05:07:41.783Z,90.02
2018-10-03T05:10:09.928Z,90.38
2018-10-03T05:12:38.133Z,90.48
2018-10-03T05:15:06.348Z,90.31
2018-10-03T05:17:34.655Z,90.57
2018-10-03T05:20:02.830Z,91.20
2018-10-03T05:22:31.168Z,91.08
2018-10-03T05:24:59.408Z,91.16
2018-10-03T05:27:27.549Z,91.02
2018-10-03T05:29:55.829Z,91.35
2018-10-03T05:32:24.047Z,91.49
2018-10-03T05:34:52.313Z,91.68
2018-10-03T05:37:20.500Z,91.68
2018-10-03T05:39:48.859Z,91.67
2018-10-03T05:42:16.979Z,91.64
2018-10-03T05:44:45.219Z,91.03
2018-10-03T05:47:13.451Z,90.06
2018-10-03T05:49:41.721Z,90.28
2018-10-03T05:52:09.919Z,90.60
2018-10-03T05:54:38.115Z,90.30
2018-10-03T05:57:06.513Z,89.99
2018-10-03T05:59:34.695Z,89.62
2018-10-03T06:02:02.985Z,89.11
2018-10-03T06:04:31.144Z,88.76
2018-10-03T06:06:59.305Z,88.93
2018-10-03T06:09:27.586Z,88.82
2018-10-03T06:11:55.899Z,88.30
2018-10-03T06:14:24.088Z,88.56
2018-10-03T06:16:52.212Z,88.54
2018-10-03T06:19:20.357Z,89.25
2018-10-03T06:21:48.491Z,88.84
2018-10-03T06:24:17.878Z,89.23
2018-10-03T06:26:46.201Z,88.93
2018-10-03T06:29:14.663Z,89.74
2018-10-03T06:31:43.270Z,89.21
2018-10-03T06:34:11.463Z,90.67
2018-10-03T06:36:39.609Z,91.05
2018-10-03T06:39:08.592Z,91.34
2018-10-03T06:41:37.847Z,92.69
2018-10-03T06:44:06.308Z,93.25
2018-10-03T06:46:34.679Z,96.79
2018-10-03T06:49:02.907Z,97.44
2018-10-03T06:51:31.308Z,98.39
2018-10-03T06:53:59.568Z,99.41
2018-10-03T06:56:28.038Z,99.63
2018-10-03T06:58:56.323Z,100.00
2018-10-03T07:01:24.477Z,100.00
2018-10-03T07:03:52.671Z,100.00
2018-10-03T07:06:20.844Z,100.00
2018-10-03T07:08:49.357Z,100.00
2018-10-03T07:11:17.568Z,100.00
2018-10-03T07:13:45.780Z,100.00
2018-10-03T07:16:13.976Z,100.00
2018-10-03T07:18:42.213Z,99.22
2018-10-03T07:21:10.676Z,99.63
2018-10-03T07:23:38.924Z,99.39
2018-10-03T07:26:07.625Z,99.48
2018-10-03T07:28:35.745Z,99.79
2018-10-03T07:31:04.215Z,99.70
2018-10-03T07:33:32.492Z,100.00
2018-10-03T07:36:00.801Z,99.93
2018-10-03T07:38:28.959Z,100.00
2018-10-03T07:40:57.425Z,100.00
2018-10-03T07:43:26.019Z,100.00
2018-10-03T07:45:54.200Z,100.00
2018-10-03T07:48:22.420Z,100.00
2018-10-03T07:50:50.748Z,100.00
2018-10-03T07:53:18.921Z,100.00
2018-10-03T07:55:47.265Z,99.75
2018-10-03T07:58:15.395Z,99.12
2018-10-03T08:00:43.642Z,99.33
2018-10-03T08:03:13.144Z,98.07
2018-10-03T08:05:41.312Z,96.85
2018-10-03T08:08:09.523Z,96.87
2018-10-03T08:10:38.523Z,96.43
2018-10-03T08:13:06.797Z,96.01
2018-10-03T08:15:35.042Z,95.67
2018-10-03T08:18:03.276Z,95.88
2018-10-03T08:20:31.441Z,95.14
2018-10-03T08:22:59.655Z,94.65
2018-10-03T08:25:28.115Z,93.36
2018-10-03T08:27:56.543Z,93.90
2018-10-03T08:30:24.720Z,92.12
2018-10-03T08:32:52.997Z,91.89
2018-10-03T08:35:21.299Z,91.80
2018-10-03T08:37:49.596Z,89.38
2018-10-03T08:40:18.096Z,90.04
2018-10-03T08:42:46.308Z,90.45
2018-10-03T08:45:14.475Z,88.25
2018-10-03T08:47:42.728Z,86.98
2018-10-03T08:50:12.367Z,85.70
2018-10-03T08:52:40.607Z,85.40
2018-10-03T08:55:09.038Z,84.77
2018-10-03T08:57:37.494Z,83.23
2018-10-03T09:00:06.327Z,83.81
2018-10-03T09:02:34.615Z,83.90
2018-10-03T09:05:02.852Z,83.49
2018-10-03T09:07:31.250Z,83.39
2018-10-03T09:09:59.520Z,81.64
2018-10-03T09:12:28.017Z,82.96
2018-10-03T09:14:56.893Z,81.69
2018-10-03T09:17:25.350Z,81.04
2018-10-03T09:19:53.702Z,80.10
2018-10-03T09:22:22.843Z,80.65
2018-10-03T09:24:51.372Z,79.49
2018-10-03T09:27:19.609Z,78.28
2018-10-03T09:29:47.823Z,78.50
2018-10-03T09:32:15.980Z,77.93
2018-10-03T09:34:44.116Z,78.65
2018-10-03T09:37:12.504Z,77.97
2018-10-03T09:39:40.721Z,77.84
2018-10-03T09:42:08.920Z,78.23
2018-10-03T09:44:37.094Z,77.90
2018-10-03T09:47:05.223Z,77.93
2018-10-03T09:49:33.443Z,76.87
2018-10-03T09:52:01.572Z,76.46
2018-10-03T09:54:29.771Z,74.79
2018-10-03T09:56:57.966Z,74.08
2018-10-03T09:59:26.170Z,73.49
2018-10-03T10:01:54.317Z,73.50
2018-10-03T10:04:22.576Z,74.04
2018-10-03T10:06:51.012Z,74.15
2018-10-03T10:09:19.163Z,72.92
2018-10-03T10:11:47.457Z,71.90
2018-10-03T10:14:15.552Z,72.86
2018-10-03T10:16:43.975Z,71.03
2018-10-03T10:19:12.127Z,71.29
2018-10-03T10:21:40.292Z,71.25
2018-10-03T10:24:08.499Z,70.15
2018-10-03T10:26:36.717Z,69.85
2018-10-03T10:29:04.881Z,69.00
2018-10-03T10:31:33.191Z,68.89
2018-10-03T10:34:01.384Z,67.57
2018-10-03T10:36:29.542Z,68.48
2018-10-03T10:38:57.815Z,69.63
2018-10-03T10:41:26.230Z,68.76
2018-10-03T10:43:55.244Z,68.03
2018-10-03T10:46:23.508Z,67.95
2018-10-03T10:48:51.640Z,67.13
2018-10-03T10:51:20.105Z,66.77
2018-10-03T10:53:48.413Z,68.17
2018-10-03T10:56:16.663Z,67.24
2018-10-03T10:58:44.883Z,64.67
2018-10-03T11:01:13.133Z,64.73
2018-10-03T11:03:41.355Z,64.60
2018-10-03T11:06:09.791Z,64.63
2018-10-03T11:08:37.995Z,66.50
2018-10-03T11:11:06.150Z,65.28
2018-10-03T11:13:34.357Z,64.70
2018-10-03T11:16:02.503Z,66.33
2018-10-03T11:18:30.712Z,66.22
2018-10-03T11:20:58.871Z,63.37
2018-10-03T11:23:27.257Z,63.56
2018-10-03T11:25:56.824Z,63.92
2018-10-03T11:28:25.199Z,63.05
2018-10-03T11:30:53.390Z,63.10
2018-10-03T11:33:21.736Z,63.80
2018-10-03T11:35:49.977Z,62.12
2018-10-03T11:38:18.226Z,63.13
2018-10-03T11:40:46.469Z,62.98
2018-10-03T11:43:14.702Z,64.34
2018-10-03T11:45:42.856Z,63.80
2018-10-03T11:48:11.183Z,63.48
2018-10-03T11:50:39.592Z,62.67
2018-10-03T11:53:07.897Z,64.54
2018-10-03T11:55:36.095Z,65.43
2018-10-03T11:58:04.333Z,65.64
2018-10-03T12:00:32.584Z,66.59
2018-10-03T12:03:00.934Z,66.91
2018-10-03T12:05:29.071Z,66.49
2018-10-03T12:07:57.970Z,65.82
2018-10-03T12:10:26.251Z,65.93
2018-10-03T12:12:54.380Z,65.99
2018-10-03T12:15:22.617Z,67.09
2018-10-03T12:17:51.298Z,67.30
2018-10-03T12:20:19.959Z,66.90
2018-10-03T12:22:48.184Z,67.87
2018-10-03T12:25:16.440Z,67.73
2018-10-03T12:27:44.675Z,68.60
2018-10-03T12:30:12.816Z,68.29
2018-10-03T12:32:41.094Z,68.89
2018-10-03T12:35:09.322Z,68.37
2018-10-03T12:37:37.728Z,68.52
2018-10-03T12:40:05.953Z,68.04
2018-10-03T12:42:34.356Z,68.38
2018-10-03T12:45:02.662Z,68.54
2018-10-03T12:47:30.816Z,68.04
2018-10-03T12:49:59.473Z,68.17
2018-10-03T12:52:27.691Z,66.34
2018-10-03T12:54:55.946Z,67.18
2018-10-03T12:57:24.144Z,67.82
2018-10-03T12:59:52.431Z,68.48
2018-10-03T13:02:20.639Z,68.09
2018-10-03T13:04:48.795Z,68.05
2018-10-03T13:07:17.072Z,68.92
2018-10-03T13:09:45.384Z,68.77
2018-10-03T13:12:13.527Z,67.93
2018-10-03T13:14:41.824Z,68.42
2018-10-03T13:17:10.051Z,68.97
2018-10-03T13:19:38.259Z,68.00
2018-10-03T13:22:06.611Z,66.06
2018-10-03T13:24:34.976Z,67.12
2018-10-03T13:27:03.221Z,64.12
2018-10-03T13:29:31.584Z,63.36
2018-10-03T13:31:59.784Z,62.84
2018-10-03T13:34:28.049Z,62.55
2018-10-03T13:36:56.280Z,63.15
2018-10-03T13:39:24.504Z,63.01
2018-10-03T13:41:52.656Z,64.24
2018-10-03T13:44:20.942Z,62.86
2018-10-03T13:46:49.220Z,64.01
2018-10-03T13:49:17.302Z,63.23
2018-10-03T13:51:45.783Z,63.69
2018-10-03T13:54:14.137Z,63.82
2018-10-03T13:56:42.284Z,63.29
2018-10-03T13:59:10.488Z,62.85
2018-10-03T14:01:38.723Z,63.94
2018-10-03T14:04:07.358Z,63.17
2018-10-03T14:06:35.899Z,64.39
2018-10-03T14:09:05.060Z,63.49
2018-10-03T14:11:33.315Z,62.04
2018-10-03T14:14:01.657Z,61.97
2018-10-03T14:16:29.976Z,61.71
2018-10-03T14:18:58.264Z,61.78
2018-10-03T14:21:26.488Z,61.12
2018-10-03T14:23:55.152Z,61.74
2018-10-03T14:26:23.504Z,62.74
2018-10-03T14:28:51.728Z,62.74
2018-10-03T14:31:20.103Z,62.75
2018-10-03T14:33:48.578Z,63.29
2018-10-03T14:36:16.807Z,62.93
2018-10-03T14:38:45.080Z,62.77
2018-10-03T14:41:13.285Z,62.13
2018-10-03T14:43:41.732Z,63.48
2018-10-03T14:46:10.076Z,62.86
2018-10-03T14:48:38.287Z,62.78
2018-10-03T14:51:06.686Z,62.94
2018-10-03T14:53:35.346Z,64.00
2018-10-03T14:56:04.383Z,63.37
2018-10-03T14:58:32.995Z,64.50
2018-10-03T15:01:01.339Z,64.89
2018-10-03T15:03:29.678Z,65.02
2018-10-03T15:05:57.976Z,65.13
2018-10-03T15:08:26.098Z,64.67
2018-10-03T15:10:54.383Z,65.37
2018-10-03T15:13:22.652Z,64.65
2018-10-03T15:15:51.089Z,66.96
2018-10-03T15:18:19.562Z,66.26
2018-10-03T15:20:47.974Z,66.99
2018-10-03T15:23:16.273Z,66.48
2018-10-03T15:25:44.540Z,67.29
2018-10-03T15:28:12.674Z,67.26
2018-10-03T15:30:40.898Z,68.30
2018-10-03T15:33:09.272Z,68.87
2018-10-03T15:35:37.731Z,68.85
2018-10-03T15:38:06.308Z,68.79
2018-10-03T15:40:34.596Z,69.34
2018-10-03T15:43:02.968Z,69.78
2018-10-03T15:45:31.171Z,70.17
2018-10-03T15:47:59.296Z,69.86
2018-10-03T15:50:27.546Z,70.74
2018-10-03T15:52:55.820Z,69.96
2018-10-03T15:55:24.092Z,70.85
2018-10-03T15:57:52.428Z,71.14
2018-10-03T16:00:20.598Z,71.26
2018-10-03T16:02:48.765Z,70.70
2018-10-03T16:05:17.049Z,71.25
2018-10-03T16:07:45.348Z,71.37
2018-10-03T16:10:13.575Z,72.67
2018-10-03T16:12:41.756Z,73.62
2018-10-03T16:15:09.969Z,73.90
2018-10-03T16:17:38.155Z,73.61
2018-10-03T16:20:06.812Z,72.97
2018-10-03T16:22:34.967Z,73.29
2018-10-03T16:25:03.147Z,72.42
2018-10-03T16:27:31.299Z,74.06
2018-10-03T16:29:59.501Z,75.71
2018-10-03T16:32:27.742Z,75.82
2018-10-03T16:34:55.899Z,75.08
2018-10-03T16:37:24.174Z,76.29
2018-10-03T16:39:52.368Z,77.07
2018-10-03T16:42:20.640Z,77.16
2018-10-03T16:44:48.860Z,77.27
2018-10-03T16:47:17.109Z,76.98
2018-10-03T16:49:45.388Z,77.77
2018-10-03T16:52:13.594Z,78.19
2018-10-03T16:54:41.965Z,78.85
2018-10-03T16:57:10.159Z,79.37
2018-10-03T16:59:38.463Z,79.87
2018-10-03T17:02:06.719Z,80.92
2018-10-03T17:04:34.852Z,81.28
2018-10-03T17:07:03.169Z,81.77
2018-10-03T17:09:31.335Z,82.04
2018-10-03T17:11:59.591Z,82.84
2018-10-03T17:14:30.071Z,83.33
2018-10-03T17:16:58.419Z,82.86
2018-10-03T17:19:26.700Z,83.52
2018-10-03T17:21:55.578Z,84.22
2018-10-03T17:24:24.880Z,84.40
2018-10-03T17:26:53.124Z,85.12
2018-10-03T17:29:21.302Z,85.32
2018-10-03T17:31:49.604Z,86.01
2018-10-03T17:34:18.240Z,86.65
2018-10-03T17:36:48.476Z,86.44
2018-10-03T17:39:17.265Z,86.22
2018-10-03T17:41:46.024Z,86.97
2018-10-03T17:44:15.083Z,87.06
2018-10-03T17:46:43.256Z,86.75
2018-10-03T17:49:12.075Z,87.38
2018-10-03T17:51:40.330Z,87.83
2018-10-03T17:54:08.491Z,87.72
2018-10-03T17:56:36.641Z,88.04
2018-10-03T17:59:04.920Z,88.29
2018-10-03T18:01:34.290Z,88.65
2018-10-03T18:04:02.452Z,89.25
2018-10-03T18:06:30.680Z,90.61
2018-10-03T18:08:59.029Z,91.21
2018-10-03T18:11:27.204Z,91.14
2018-10-03T18:13:55.397Z,90.70
2018-10-03T18:16:23.704Z,90.13
2018-10-03T18:18:52.006Z,90.23
2018-10-03T18:21:20.270Z,90.32
2018-10-03T18:23:48.491Z,90.20
2018-10-03T18:26:16.889Z,90.05
2018-10-03T18:28:45.300Z,90.92
2018-10-03T18:31:14.256Z,90.93
2018-10-03T18:33:48.199Z,91.03
2018-10-03T18:36:16.357Z,91.18
2018-10-03T18:38:44.573Z,91.49
2018-10-03T18:41:12.823Z,91.63
2018-10-03T18:43:41.012Z,91.94
2018-10-03T18:46:09.309Z,92.07
2018-10-03T18:48:37.460Z,92.21
2018-10-03T18:51:06.030Z,92.71
2018-10-03T18:53:34.224Z,92.73
2018-10-03T18:56:02.656Z,92.73
2018-10-03T18:58:30.936Z,93.14
2018-10-03T19:00:59.104Z,93.71
2018-10-03T19:03:27.422Z,93.81
2018-10-03T19:05:55.782Z,93.89
2018-10-03T19:08:23.892Z,94.96
2018-10-03T19:10:52.174Z,95.51
2018-10-03T19:13:20.325Z,95.55
2018-10-03T19:15:48.515Z,97.11
2018-10-03T19:18:16.776Z,97.16
2018-10-03T19:20:46.201Z,96.93
2018-10-03T19:23:14.644Z,96.95
2018-10-03T19:25:43.296Z,96.76
2018-10-03T19:28:11.481Z,96.61
2018-10-03T19:30:39.622Z,96.61
2018-10-03T19:33:07.788Z,96.55
2018-10-03T19:35:36.134Z,96.92
2018-10-03T19:38:04.734Z,97.10
2018-10-03T19:40:32.887Z,99.26
2018-10-03T19:43:01.276Z,99.40
2018-10-03T19:45:29.527Z,99.94
2018-10-03T19:47:57.718Z,99.65
2018-10-03T19:50:26.236Z,99.65
2018-10-03T19:52:54.670Z,100.00
2018-10-03T19:55:23.038Z,99.85
2018-10-03T19:57:51.277Z,99.72
2018-10-03T20:00:19.452Z,99.85
2018-10-03T20:02:47.609Z,100.00
2018-10-03T20:05:15.812Z,100.00
2018-10-03T20:07:44.023Z,100.00
2018-10-03T20:10:12.164Z,100.00
2018-10-03T20:12:40.421Z,100.00
2018-10-03T20:15:08.656Z,100.00
2018-10-03T20:17:36.868Z,100.00
2018-10-03T20:20:05.160Z,100.00
2018-10-03T20:22:33.326Z,100.00
2018-10-03T20:25:01.519Z,100.00
2018-10-03T20:27:29.791Z,100.00
2018-10-03T20:29:57.945Z,100.00
2018-10-03T20:32:26.189Z,100.00
2018-10-03T20:34:54.408Z,100.00
2018-10-03T20:37:22.627Z,100.00
2018-10-03T20:39:50.943Z,100.00
2018-10-03T20:42:19.132Z,100.00
2018-10-03T20:44:48.015Z,100.00
2018-10-03T20:47:16.140Z,100.00
2018-10-03T20:49:44.435Z,100.00
2018-10-03T20:52:12.820Z,100.00
2018-10-03T20:54:41.122Z,100.00
2018-10-03T20:57:09.284Z,100.00
2018-10-03T20:59:37.503Z,100.00
2018-10-03T21:02:05.666Z,100.00
2018-10-03T21:04:33.859Z,100.00
2018-10-03T21:07:03.030Z,100.00
2018-10-03T21:09:31.235Z,100.00
2018-10-03T21:11:59.459Z,100.00
2018-10-03T21:14:27.651Z,100.00
2018-10-03T21:16:55.858Z,100.00
2018-10-03T21:19:24.112Z,100.00
2018-10-03T21:21:52.278Z,100.00
2018-10-03T21:24:20.693Z,100.00
2018-10-03T21:26:49.148Z,100.00
2018-10-03T21:29:17.327Z,100.00
2018-10-03T21:31:45.468Z,100.00
2018-10-03T21:34:13.706Z,100.00
2018-10-03T21:36:42.009Z,100.00
2018-10-03T21:39:10.215Z,100.00
2018-10-03T21:41:38.390Z,100.00
2018-10-03T21:44:06.676Z,100.00
2018-10-03T21:46:34.951Z,100.00
2018-10-03T21:49:03.136Z,100.00
2018-10-03T21:51:31.459Z,100.00
2018-10-03T21:53:59.732Z,100.00
2018-10-03T21:56:27.987Z,100.00
2018-10-03T21:58:56.195Z,100.00
2018-10-03T22:02:40.277Z,100.00
2018-10-03T22:05:09.539Z,100.00
2018-10-03T22:07:38.315Z,100.00
2018-10-03T22:10:06.824Z,100.00
2018-10-03T22:12:35.203Z,100.00
2018-10-03T22:15:03.495Z,100.00
2018-10-03T22:17:35.852Z,100.00
2018-10-03T22:20:04.083Z,100.00
2018-10-03T22:22:32.461Z,100.00
2018-10-03T22:25:00.636Z,100.00
2018-10-03T22:27:28.772Z,100.00
2018-10-03T22:29:56.975Z,100.00
2018-10-03T22:32:25.121Z,100.00
2018-10-03T22:34:53.587Z,100.00
2018-10-03T22:37:22.016Z,100.00
2018-10-03T22:39:50.347Z,100.00
2018-10-03T22:42:18.519Z,100.00
2018-10-03T22:44:46.798Z,100.00
2018-10-03T22:47:14.964Z,100.00
2018-10-03T22:49:43.191Z,100.00
2018-10-03T22:52:11.358Z,100.00
2018-10-03T22:54:39.643Z,100.00
2018-10-03T22:57:07.790Z,100.00
2018-10-03T22:59:35.952Z,100.00
2018-10-03T23:02:04.198Z,100.00
2018-10-03T23:04:32.433Z,100.00
2018-10-03T23:07:01.102Z,100.00
2018-10-03T23:09:29.294Z,100.00
2018-10-03T23:11:57.519Z,100.00
2018-10-03T23:14:25.682Z,100.00
2018-10-03T23:16:53.964Z,100.00
2018-10-03T23:19:22.416Z,100.00
2018-10-03T23:21:50.601Z,100.00
2018-10-03T23:24:18.754Z,100.00
2018-10-03T23:26:47.313Z,100.00
2018-10-03T23:29:15.732Z,100.00
2018-10-03T23:31:43.915Z,100.00
2018-10-03T23:34:12.151Z,100.00
2018-10-03T23:36:40.565Z,100.00
2018-10-03T23:39:10.722Z,100.00
2018-10-03T23:41:39.326Z,100.00
2018-10-03T23:44:07.814Z,100.00
2018-10-03T23:46:36.326Z,100.00
2018-10-03T23:49:04.707Z,100.00
2018-10-03T23:51:32.891Z,100.00
2018-10-03T23:54:01.149Z,100.00
2018-10-03T23:56:29.631Z,100.00
2018-10-03T23:58:57.866Z,100.00
